Terminal Aerodrome Forecast
Issued by NWS

Home | Current Version | Previous Version | Text Only | Print | Product List | Glossary On
Versions: 1 2 3 4 5 6 7 8 9 10 11 12 13 14 15
000
FTUS44 KLZK 211720
TAFLIT
TAF
KLIT 211720Z 2118/2218 18010G17KT P6SM VCSH OVC020
     FM220000 15008G15KT P6SM VCSH BKN025
     FM221000 21015G25KT 4SM TSRA BR BKN015 OVC050CB
      TEMPO 2210/2213 VRB25G40KT 1SM +TSRA OVC005CB
     FM221300 29010KT 5SM -SHRA BR OVC015=

USA.gov is the U.S. government's official web portal to all federal, state and local government web resources and services.